Oceanside, California
Current Conditions -  °F | °C
As of 1:52 PM on Thursday 27 Nov 2014 (Local Time) from KOKB Reporting Station
Clear Clear  
Wind Chill: 81°   Ceiling: Unl
Heat Index: 81°   Visibility: 10mi
Dew Point: 39°   Wind: 8mph
Humidity: 22%   Direction: 260°W
Pressure: 29.99"   Gusts: NA
Location:  33.2°N, 117.38°W
Report Text: KOKB 272152Z AUTO 26007KT 10SM CLR 27/04 A2999 RMK AO2 SLP156 T02720039
Loading
Personal Weather Stations






























Interactive Weather Map New forecast layout! Learn more

10-Day Weather Forecast

Advertisements
Track Severe Weather on mobile